Time;durP1;ratioP1;P1;durP2;ratioP2;P2;SDS_P1;SDS_P2;PMS_P1;PMS_P2;Temp;Humidity;BMP_temperature;BMP_pressure;BME280_temperature;BME280_humidity;BME280_pressure;Samples;Min_cycle;Max_cycle;Signal;HPM_P1;HPM_P2
2024/03/27 00:02:06;;;;;;;5.10;4.60;;;12.70;89.90;;;;;;5012658;28;20466;-61
2024/03/27 00:04:33;;;;;;;5.27;4.87;;;12.70;90.30;;;;;;5014634;28;20543;-61
2024/03/27 00:06:58;;;;;;;5.20;4.80;;;12.70;90.80;;;;;;5014477;28;20457;-61
2024/03/27 00:09:24;;;;;;;5.73;5.23;;;12.70;91.00;;;;;;5013183;28;20448;-61
2024/03/27 00:11:50;;;;;;;5.47;5.07;;;12.70;91.00;;;;;;5013241;28;20198;-61
2024/03/27 00:14:17;;;;;;;5.03;4.63;;;12.60;91.40;;;;;;5014729;28;20259;-61
2024/03/27 00:16:46;;;;;;;5.83;5.33;;;12.60;91.30;;;;;;5012137;28;20426;-61
2024/03/27 00:19:13;;;;;;;5.70;5.10;;;12.60;91.20;;;;;;5014184;28;20439;-61
2024/03/27 00:21:38;;;;;;;5.17;4.60;;;12.60;91.60;;;;;;5013032;28;20572;-62
2024/03/27 00:24:05;;;;;;;5.83;5.33;;;12.50;91.40;;;;;;5014847;28;21002;-61
2024/03/27 00:26:31;;;;;;;5.90;5.40;;;12.50;91.40;;;;;;5013722;28;20442;-61
2024/03/27 00:28:57;;;;;;;6.60;6.07;;;12.50;91.60;;;;;;5012614;28;20463;-61
2024/03/27 00:31:23;;;;;;;5.73;5.23;;;12.50;91.80;;;;;;5013681;28;20437;-61
2024/03/27 00:33:50;;;;;;;5.67;5.27;;;12.50;91.90;;;;;;5013689;28;20515;-61
2024/03/27 00:36:16;;;;;;;5.50;5.00;;;12.40;92.20;;;;;;5013210;28;20832;-61
2024/03/27 00:38:42;;;;;;;5.20;4.70;;;12.50;93.00;;;;;;5012801;28;20512;-61
2024/03/27 00:41:08;;;;;;;6.50;5.93;;;12.40;93.30;;;;;;5014596;28;20179;-61
2024/03/27 00:43:35;;;;;;;6.23;5.63;;;12.40;93.70;;;;;;5012924;28;20483;-61
2024/03/27 00:46:05;;;;;;;5.63;4.63;;;12.40;93.20;;;;;;5013222;28;20433;-61
2024/03/27 00:48:32;;;;;;;5.10;4.70;;;12.40;92.90;;;;;;4998202;28;20514;-61
2024/03/27 00:50:58;;;;;;;6.00;5.50;;;12.40;93.20;;;;;;5013817;28;20413;-61
2024/03/27 00:53:24;;;;;;;4.80;4.40;;;12.40;93.40;;;;;;5013509;28;20433;-61
2024/03/27 00:55:57;;;;;;;5.57;5.07;;;12.40;93.10;;;;;;5012479;28;20460;-61
2024/03/27 00:58:23;;;;;;;5.80;5.30;;;12.40;92.70;;;;;;5014184;28;20449;-61
2024/03/27 01:00:49;;;;;;;5.40;4.90;;;12.50;92.80;;;;;;5012042;28;20517;-61
2024/03/27 01:03:15;;;;;;;5.20;4.80;;;12.50;93.30;;;;;;5013357;28;20511;-61
2024/03/27 01:05:42;;;;;;;5.77;5.23;;;12.50;93.30;;;;;;5013151;28;20699;-61
2024/03/27 01:08:08;;;;;;;5.80;5.30;;;12.50;93.50;;;;;;5012929;28;20531;-61
2024/03/27 01:10:37;;;;;;;5.77;5.27;;;12.50;94.40;;;;;;5013723;28;20426;-61
2024/03/27 01:13:03;;;;;;;5.60;5.00;;;12.50;95.00;;;;;;5012871;28;20464;-62
2024/03/27 01:15:30;;;;;;;6.60;5.50;;;12.50;95.10;;;;;;5012479;28;20882;-62
2024/03/27 01:17:55;;;;;;;6.23;5.40;;;12.50;95.10;;;;;;5011825;28;20417;-61
2024/03/27 01:20:22;;;;;;;5.40;5.00;;;12.50;95.30;;;;;;5013810;28;20402;-62
2024/03/27 01:22:48;;;;;;;6.23;5.50;;;12.50;94.50;;;;;;5012240;28;20235;-62
2024/03/27 01:25:15;;;;;;;6.00;5.50;;;12.50;94.60;;;;;;5013635;28;20829;-62
2024/03/27 01:27:41;;;;;;;9.23;5.97;;;12.50;94.60;;;;;;5011746;28;20437;-61
2024/03/27 01:30:07;;;;;;;6.40;5.77;;;12.50;94.10;;;;;;5011662;28;20438;-62
2024/03/27 01:32:34;;;;;;;6.33;5.83;;;12.50;94.60;;;;;;5011870;28;20578;-61
2024/03/27 01:34:59;;;;;;;5.93;5.33;;;12.60;93.90;;;;;;5011457;28;20456;-61
2024/03/27 01:37:25;;;;;;;6.77;6.07;;;12.60;93.60;;;;;;5012542;28;20812;-61
2024/03/27 01:39:51;;;;;;;6.53;5.83;;;12.60;93.70;;;;;;5011237;28;20183;-61
2024/03/27 01:42:17;;;;;;;6.83;6.00;;;12.60;94.40;;;;;;5012265;28;20198;-62
2024/03/27 01:44:43;;;;;;;6.27;5.73;;;12.60;94.50;;;;;;5011338;28;20221;-62
2024/03/27 01:47:11;;;;;;;6.40;5.80;;;12.60;95.30;;;;;;5013199;28;20186;-61
2024/03/27 01:49:41;;;;;;;6.33;5.83;;;12.60;94.60;;;;;;5012489;28;20200;-61
2024/03/27 01:52:10;;;;;;;6.87;5.77;;;12.50;95.00;;;;;;5012191;28;20776;-61
2024/03/27 01:54:36;;;;;;;6.73;6.10;;;12.50;95.80;;;;;;5012553;28;20507;-61
2024/03/27 01:57:04;;;;;;;7.83;6.80;;;12.60;94.70;;;;;;5011550;28;20429;-61
2024/03/27 01:59:32;;;;;;;7.17;6.47;;;12.60;94.80;;;;;;5009101;28;20519;-59
2024/03/27 02:01:59;;;;;;;6.27;5.67;;;12.50;95.60;;;;;;5010953;28;20465;-60
2024/03/27 02:04:28;;;;;;;7.00;6.40;;;12.50;95.20;;;;;;5013098;28;20511;-60
2024/03/27 02:06:55;;;;;;;7.23;6.57;;;12.50;95.40;;;;;;5011151;28;20448;-60
2024/03/27 02:09:22;;;;;;;6.77;6.07;;;12.50;95.30;;;;;;5009836;28;20786;-60
2024/03/27 02:11:48;;;;;;;6.80;6.10;;;12.50;95.40;;;;;;5011077;28;20828;-59
2024/03/27 02:14:15;;;;;;;5.70;5.20;;;12.50;95.30;;;;;;5012775;28;20456;-60
2024/03/27 02:16:41;;;;;;;6.30;5.77;;;12.50;95.20;;;;;;5010664;28;20799;-60
2024/03/27 02:19:07;;;;;;;5.70;5.20;;;12.50;95.30;;;;;;5011847;28;20437;-60
2024/03/27 02:21:35;;;;;;;5.93;4.83;;;12.50;95.00;;;;;;5011828;28;20434;-60
2024/03/27 02:24:04;;;;;;;5.10;4.60;;;12.50;94.60;;;;;;5011927;28;21071;-60
2024/03/27 02:26:34;;;;;;;5.27;4.80;;;12.40;94.30;;;;;;5011299;28;20967;-60
2024/03/27 02:29:00;;;;;;;5.80;4.80;;;12.50;93.80;;;;;;5010885;28;20444;-60
2024/03/27 02:31:25;;;;;;;5.10;4.60;;;12.50;94.00;;;;;;5012475;28;20425;-60
2024/03/27 02:33:51;;;;;;;4.40;4.00;;;12.40;93.20;;;;;;5010940;28;20191;-60
2024/03/27 02:36:17;;;;;;;4.70;4.30;;;12.40;93.00;;;;;;5011377;28;20272;-60
2024/03/27 02:38:42;;;;;;;6.70;4.83;;;12.40;93.00;;;;;;5011547;28;20414;-61
2024/03/27 02:41:08;;;;;;;4.67;4.37;;;12.40;92.70;;;;;;5011406;28;20189;-60
2024/03/27 02:43:34;;;;;;;4.50;4.20;;;12.50;93.30;;;;;;5011661;28;20176;-59
2024/03/27 02:46:00;;;;;;;4.77;4.40;;;12.40;93.20;;;;;;5010514;28;20368;-60
2024/03/27 02:48:25;;;;;;;4.97;4.57;;;12.50;93.30;;;;;;5012093;28;20194;-59
2024/03/27 02:50:51;;;;;;;5.30;4.90;;;12.50;93.30;;;;;;5010957;28;20193;-60
2024/03/27 02:53:17;;;;;;;4.43;4.13;;;12.50;93.70;;;;;;5011369;28;20612;-60
2024/03/27 02:55:42;;;;;;;5.47;5.10;;;12.40;93.60;;;;;;5011762;28;20189;-60
2024/03/27 02:58:08;;;;;;;4.40;4.10;;;12.40;93.60;;;;;;5010849;28;20187;-60
2024/03/27 03:00:34;;;;;;;7.80;4.40;;;12.40;93.30;;;;;;5011363;28;20691;-60
2024/03/27 03:03:00;;;;;;;4.73;4.20;;;12.40;94.00;;;;;;5011294;28;20347;-60
2024/03/27 03:05:26;;;;;;;5.00;4.60;;;12.50;94.20;;;;;;5011135;28;20967;-60
2024/03/27 03:07:52;;;;;;;4.40;4.10;;;12.40;94.70;;;;;;5010448;28;20444;-60
2024/03/27 03:10:18;;;;;;;4.47;4.17;;;12.40;94.90;;;;;;5011211;28;20912;-60
2024/03/27 03:12:44;;;;;;;4.40;4.10;;;12.40;95.00;;;;;;5011415;28;20174;-60
2024/03/27 03:15:09;;;;;;;5.53;5.07;;;12.40;94.90;;;;;;5009885;28;20189;-60
2024/03/27 03:17:36;;;;;;;4.50;4.13;;;12.30;94.40;;;;;;5011212;28;20659;-60
2024/03/27 03:20:04;;;;;;;4.73;3.83;;;12.30;94.20;;;;;;5011383;28;20270;-60
2024/03/27 03:22:30;;;;;;;4.77;4.37;;;12.30;92.60;;;;;;5011153;28;20434;-60
2024/03/27 03:24:56;;;;;;;4.60;4.00;;;12.30;92.50;;;;;;5010236;28;20468;-60
2024/03/27 03:27:22;;;;;;;4.27;3.87;;;12.30;93.00;;;;;;5010866;28;20802;-59
2024/03/27 03:29:47;;;;;;;4.97;4.10;;;12.30;93.20;;;;;;5010373;28;20193;-60
2024/03/27 03:32:14;;;;;;;4.03;3.80;;;12.20;93.60;;;;;;5011069;28;20532;-60
2024/03/27 03:34:39;;;;;;;4.30;3.93;;;12.20;93.90;;;;;;5011477;28;20207;-60
2024/03/27 03:37:05;;;;;;;4.47;4.07;;;12.20;94.30;;;;;;5008953;28;20437;-60
2024/03/27 03:39:31;;;;;;;6.83;4.20;;;12.10;94.60;;;;;;5011076;28;20189;-60
2024/03/27 03:41:57;;;;;;;4.50;4.20;;;12.10;94.50;;;;;;5011188;28;20202;-60
2024/03/27 03:44:23;;;;;;;4.40;4.10;;;12.00;94.60;;;;;;5010501;28;20868;-59
2024/03/27 03:46:49;;;;;;;6.27;4.30;;;12.00;94.80;;;;;;5010099;28;20539;-60
2024/03/27 03:49:15;;;;;;;5.80;4.40;;;11.90;94.70;;;;;;5011153;28;20183;-60
2024/03/27 03:51:42;;;;;;;5.53;4.53;;;11.80;95.10;;;;;;5011345;28;20201;-59
2024/03/27 03:54:08;;;;;;;5.40;5.00;;;11.80;95.50;;;;;;5013945;28;20217;-60
2024/03/27 03:56:34;;;;;;;4.73;4.43;;;11.70;95.70;;;;;;5015335;28;20900;-60
2024/03/27 03:59:00;;;;;;;5.37;4.97;;;11.70;95.90;;;;;;5014363;28;20434;-60
2024/03/27 04:01:27;;;;;;;5.80;5.30;;;11.60;96.10;;;;;;5014514;28;20558;-59
2024/03/27 04:03:53;;;;;;;6.50;5.80;;;11.60;96.30;;;;;;5013896;28;20529;-61
2024/03/27 04:06:19;;;;;;;6.60;6.00;;;11.50;96.50;;;;;;5014137;28;20450;-61
2024/03/27 04:08:44;;;;;;;7.17;6.57;;;11.50;96.90;;;;;;5014989;28;20457;-61
2024/03/27 04:11:10;;;;;;;7.40;6.70;;;11.40;97.30;;;;;;5014692;28;20202;-61
2024/03/27 04:13:36;;;;;;;6.93;6.33;;;11.40;97.80;;;;;;5015226;28;20222;-61
2024/03/27 04:16:02;;;;;;;7.43;6.80;;;11.40;98.00;;;;;;5014252;28;20560;-61
2024/03/27 04:18:28;;;;;;;6.53;6.00;;;11.30;98.10;;;;;;5015053;28;20171;-61
2024/03/27 04:20:54;;;;;;;8.03;6.60;;;11.30;98.50;;;;;;5012910;28;20423;-61
2024/03/27 04:23:20;;;;;;;7.07;6.37;;;11.30;98.90;;;;;;5014548;28;20423;-61
2024/03/27 04:25:51;;;;;;;7.43;6.30;;;11.20;99.00;;;;;;5014664;28;20217;-61
2024/03/27 04:28:17;;;;;;;8.90;6.37;;;11.30;99.10;;;;;;5013595;28;20461;-61
2024/03/27 04:30:43;;;;;;;7.43;6.53;;;11.20;98.80;;;;;;5014853;28;20427;-61
2024/03/27 04:33:10;;;;;;;9.63;7.63;;;11.20;99.00;;;;;;5012701;28;20955;-61
2024/03/27 04:35:37;;;;;;;8.50;7.80;;;11.20;99.00;;;;;;5013601;28;20520;-61
2024/03/27 04:38:03;;;;;;;8.23;7.47;;;11.20;99.00;;;;;;5013889;28;20411;-61
2024/03/27 04:40:28;;;;;;;8.07;7.27;;;11.20;98.80;;;;;;5014612;28;20418;-61
2024/03/27 04:42:54;;;;;;;12.37;7.50;;;11.20;98.60;;;;;;5013114;28;20418;-61
2024/03/27 04:45:21;;;;;;;7.90;7.10;;;11.20;98.50;;;;;;5014423;28;20240;-61
2024/03/27 04:47:47;;;;;;;7.57;6.93;;;11.20;98.60;;;;;;5014292;28;20182;-61
2024/03/27 04:50:13;;;;;;;8.03;7.23;;;11.20;98.60;;;;;;5013986;28;20430;-61
2024/03/27 04:52:39;;;;;;;7.10;6.37;;;11.20;98.70;;;;;;5014240;28;20411;-61
2024/03/27 04:55:05;;;;;;;7.77;7.07;;;11.20;98.60;;;;;;5013528;28;20184;-60
2024/03/27 04:57:31;;;;;;;7.23;6.53;;;11.10;98.50;;;;;;5013805;28;20631;-60
2024/03/27 04:59:57;;;;;;;6.80;6.30;;;11.10;98.90;;;;;;5013638;28;20430;-61
2024/03/27 05:02:23;;;;;;;6.83;6.23;;;11.10;98.90;;;;;;5013381;28;20458;-61
2024/03/27 05:04:49;;;;;;;7.93;7.10;;;11.10;99.50;;;;;;5012325;28;20534;-61
2024/03/27 05:07:15;;;;;;;6.63;5.90;;;11.10;99.60;;;;;;5014270;28;20295;-61
2024/03/27 05:09:41;;;;;;;6.40;5.90;;;11.10;99.20;;;;;;5014083;28;20172;-61
2024/03/27 05:12:07;;;;;;;5.73;5.20;;;11.20;98.90;;;;;;5012611;28;20425;-61
2024/03/27 05:14:33;;;;;;;6.47;5.97;;;11.20;99.10;;;;;;5013217;28;20262;-61
2024/03/27 05:16:59;;;;;;;8.10;5.70;;;11.20;98.50;;;;;;5012697;28;20189;-61
2024/03/27 05:19:25;;;;;;;7.03;6.33;;;11.20;98.40;;;;;;5013299;28;20180;-61
2024/03/27 05:21:52;;;;;;;7.03;6.33;;;11.20;97.50;;;;;;5010978;28;20513;-61
2024/03/27 05:24:18;;;;;;;6.37;5.77;;;11.30;97.30;;;;;;5008937;28;20219;-61
2024/03/27 05:26:46;;;;;;;6.93;6.30;;;11.30;97.30;;;;;;4994471;28;21007;-61
2024/03/27 05:29:13;;;;;;;7.57;6.87;;;11.50;98.60;;;;;;5012938;28;20412;-61
2024/03/27 05:31:55;;;;;;;7.50;6.83;;;11.40;99.00;;;;;;5013625;28;20411;-61
2024/03/27 05:34:22;;;;;;;6.60;6.10;;;11.30;99.10;;;;;;5013749;28;20420;-61
2024/03/27 05:36:48;;;;;;;6.40;5.90;;;11.40;99.50;;;;;;5013573;28;20456;-60
2024/03/27 05:39:14;;;;;;;7.60;6.80;;;11.40;99.70;;;;;;5012248;28;20915;-60
2024/03/27 05:41:43;;;;;;;7.53;6.70;;;11.40;99.90;;;;;;5013286;28;20770;-61
2024/03/27 05:44:10;;;;;;;7.43;6.73;;;11.40;99.90;;;;;;5012563;28;20535;-60
2024/03/27 05:46:37;;;;;;;7.57;6.87;;;11.30;99.90;;;;;;5012974;28;20430;-60
2024/03/27 05:49:03;;;;;;;8.73;7.83;;;11.40;99.90;;;;;;5012405;28;20770;-61
2024/03/27 05:51:30;;;;;;;8.77;7.67;;;11.30;99.90;;;;;;5013001;28;20895;-60
2024/03/27 05:53:55;;;;;;;7.70;7.00;;;11.30;99.90;;;;;;5012267;28;20419;-60
2024/03/27 05:56:22;;;;;;;7.80;7.00;;;11.40;99.90;;;;;;5007474;28;20435;-60
2024/03/27 05:58:48;;;;;;;8.87;7.40;;;11.40;99.90;;;;;;5012718;28;20179;-60
2024/03/27 06:01:14;;;;;;;7.07;6.53;;;11.40;99.90;;;;;;5011945;28;20485;-60
2024/03/27 06:03:41;;;;;;;7.90;7.20;;;11.50;99.90;;;;;;5012524;28;20421;-60
2024/03/27 06:06:07;;;;;;;7.37;6.67;;;11.50;99.90;;;;;;5011636;28;20590;-60
2024/03/27 06:08:33;;;;;;;8.10;7.23;;;11.50;99.90;;;;;;5012473;28;20457;-60
2024/03/27 06:10:59;;;;;;;8.10;7.30;;;11.50;99.90;;;;;;5008440;28;20179;-60
2024/03/27 06:13:25;;;;;;;7.80;6.90;;;11.50;99.90;;;;;;5013086;28;20176;-60
2024/03/27 06:15:51;;;;;;;8.10;7.30;;;11.50;99.90;;;;;;5010125;28;20180;-60
2024/03/27 06:18:16;;;;;;;9.13;6.93;;;11.60;99.90;;;;;;5012346;28;20407;-60
2024/03/27 06:20:42;;;;;;;7.40;6.60;;;11.60;99.90;;;;;;5012551;28;20746;-60
2024/03/27 06:23:08;;;;;;;8.20;7.40;;;11.70;99.90;;;;;;5012251;28;20184;-60
2024/03/27 06:25:34;;;;;;;11.27;6.90;;;11.70;99.90;;;;;;5011380;28;20231;-60
2024/03/27 06:28:00;;;;;;;9.77;8.57;;;11.70;99.90;;;;;;4994434;28;20413;-60
2024/03/27 06:30:26;;;;;;;8.87;7.97;;;11.70;99.90;;;;;;5012576;28;20446;-65
2024/03/27 06:32:51;;;;;;;10.10;9.13;;;11.80;99.90;;;;;;5012804;28;20305;-61
2024/03/27 06:35:21;;;;;;;14.17;8.73;;;11.90;99.90;;;;;;5011583;28;20581;-66
2024/03/27 06:37:47;;;;;;;11.17;9.20;;;12.10;99.90;;;;;;5012163;28;20186;-58
2024/03/27 06:40:14;;;;;;;11.37;9.70;;;12.10;99.10;;;;;;5011327;28;20434;-59
2024/03/27 06:42:40;;;;;;;9.40;7.73;;;12.20;97.10;;;;;;5011255;28;20415;-61
2024/03/27 06:45:06;;;;;;;8.10;7.30;;;12.30;96.90;;;;;;5010426;28;20472;-61
2024/03/27 06:47:32;;;;;;;7.20;6.50;;;12.30;96.20;;;;;;5011821;28;20923;-60
2024/03/27 06:49:58;;;;;;;19.37;9.87;;;12.30;95.30;;;;;;5011335;28;20421;-61
2024/03/27 06:52:25;;;;;;;56.97;14.73;;;12.30;95.40;;;;;;5011905;28;20453;-61
2024/03/27 06:54:51;;;;;;;15.40;8.20;;;12.40;95.80;;;;;;5012326;28;20420;-61
2024/03/27 06:57:20;;;;;;;23.73;8.10;;;12.40;95.70;;;;;;5011102;28;20988;-61
2024/03/27 06:59:46;;;;;;;19.67;10.70;;;12.40;95.70;;;;;;5011882;28;20470;-61
2024/03/27 07:02:12;;;;;;;11.63;8.67;;;12.50;96.90;;;;;;5011195;28;20461;-61
2024/03/27 07:04:38;;;;;;;10.47;7.70;;;12.50;96.60;;;;;;5011113;28;20209;-61
2024/03/27 07:07:03;;;;;;;9.33;8.43;;;12.50;96.30;;;;;;5011032;28;20312;-61
2024/03/27 07:09:30;;;;;;;9.63;8.60;;;12.50;96.00;;;;;;5011145;28;20427;-61
2024/03/27 07:11:56;;;;;;;9.53;8.20;;;12.60;96.40;;;;;;5011868;28;20178;-61
2024/03/27 07:14:22;;;;;;;9.47;8.57;;;12.60;96.50;;;;;;5011602;28;20420;-61
2024/03/27 07:16:48;;;;;;;10.30;9.20;;;12.60;97.00;;;;;;5010899;28;20423;-62
2024/03/27 07:19:14;;;;;;;12.23;8.00;;;12.60;96.40;;;;;;4996680;28;21048;-61
2024/03/27 07:21:41;;;;;;;10.43;9.37;;;12.70;96.10;;;;;;4992360;28;20182;-61
2024/03/27 07:24:07;;;;;;;8.53;7.63;;;12.70;96.40;;;;;;5011582;28;20217;-61
2024/03/27 07:26:43;;;;;;;8.00;7.23;;;12.70;96.90;;;;;;5012251;28;20454;-60
2024/03/27 07:29:09;;;;;;;10.50;7.23;;;12.70;97.50;;;;;;5015174;28;20490;-61
2024/03/27 07:31:34;;;;;;;11.67;7.57;;;12.80;98.30;;;;;;5015107;28;20877;-61
2024/03/27 07:34:00;;;;;;;11.13;7.00;;;12.80;98.40;;;;;;5012353;28;20552;-61
2024/03/27 07:36:26;;;;;;;7.77;7.00;;;12.80;97.90;;;;;;5013986;28;20554;-61
2024/03/27 07:38:51;;;;;;;8.37;7.40;;;12.80;97.40;;;;;;5015653;28;20233;-61
2024/03/27 07:41:17;;;;;;;8.53;7.53;;;12.90;97.40;;;;;;5014350;28;20186;-61
2024/03/27 07:43:43;;;;;;;6.50;5.90;;;12.90;97.50;;;;;;5015529;28;20192;-63
2024/03/27 07:46:11;;;;;;;6.93;6.33;;;13.00;98.80;;;;;;5014869;28;20626;-62
2024/03/27 07:48:37;;;;;;;7.67;6.87;;;13.00;98.80;;;;;;5015331;28;20424;-62
2024/03/27 07:51:03;;;;;;;6.83;6.23;;;13.10;99.10;;;;;;5014068;28;20780;-63
2024/03/27 07:53:28;;;;;;;9.20;7.80;;;13.10;99.20;;;;;;5015121;28;20420;-63
2024/03/27 07:55:58;;;;;;;7.40;6.80;;;13.10;98.90;;;;;;5012659;28;20183;-62
2024/03/27 07:58:24;;;;;;;8.20;7.40;;;13.20;98.10;;;;;;5013861;28;20240;-63
2024/03/27 08:00:52;;;;;;;7.90;7.00;;;13.20;97.60;;;;;;5014952;28;20901;-62
2024/03/27 08:03:17;;;;;;;7.77;6.10;;;13.30;97.90;;;;;;5014235;28;20235;-61
2024/03/27 08:05:46;;;;;;;12.43;7.10;;;13.30;98.20;;;;;;5015141;28;20944;-61
2024/03/27 08:08:12;;;;;;;7.97;6.60;;;13.40;98.50;;;;;;4996930;28;20656;-61
2024/03/27 08:10:38;;;;;;;10.67;6.63;;;13.40;99.90;;;;;;5008738;28;20512;-62
2024/03/27 08:13:04;;;;;;;7.60;5.90;;;13.50;98.70;;;;;;5011271;28;20194;-62
2024/03/27 08:15:30;;;;;;;9.57;7.47;;;13.50;99.10;;;;;;5013686;28;20601;-62
2024/03/27 08:17:56;;;;;;;8.40;5.80;;;13.60;98.80;;;;;;5014773;28;20510;-62
2024/03/27 08:20:23;;;;;;;7.43;6.30;;;13.60;98.50;;;;;;5014068;28;21032;-62
2024/03/27 08:22:49;;;;;;;9.20;8.33;;;13.70;97.90;;;;;;5013461;28;20923;-61
2024/03/27 08:25:15;;;;;;;14.07;7.63;;;13.70;98.10;;;;;;5014072;28;20450;-62
2024/03/27 08:27:40;;;;;;;7.83;7.23;;;13.80;98.00;;;;;;5015051;28;20960;-61
2024/03/27 08:30:07;;;;;;;11.60;6.77;;;13.90;98.10;;;;;;5012319;28;20433;-62
2024/03/27 08:32:33;;;;;;;12.43;6.90;;;13.90;98.50;;;;;;5014809;28;20180;-62
2024/03/27 08:34:59;;;;;;;6.80;6.10;;;14.00;98.70;;;;;;5014740;28;20434;-62
2024/03/27 08:37:25;;;;;;;9.70;9.03;;;14.00;98.50;;;;;;5013572;28;20180;-61
2024/03/27 08:39:51;;;;;;;6.27;5.67;;;14.10;99.00;;;;;;5013432;28;20436;-61
2024/03/27 08:42:17;;;;;;;7.47;6.83;;;14.10;99.20;;;;;;5012269;28;20178;-62
2024/03/27 08:44:43;;;;;;;4.97;4.57;;;14.10;99.70;;;;;;5011886;28;20543;-62
2024/03/27 08:47:08;;;;;;;6.70;6.20;;;14.10;99.90;;;;;;5013598;28;20933;-62
2024/03/27 08:49:35;;;;;;;4.30;4.00;;;14.10;99.90;;;;;;5014462;28;20181;-61
2024/03/27 08:52:01;;;;;;;5.50;5.10;;;14.10;99.90;;;;;;5013014;28;20181;-62
2024/03/27 08:54:27;;;;;;;5.80;5.40;;;14.10;99.90;;;;;;5014418;28;20415;-61
2024/03/27 08:56:52;;;;;;;4.13;3.93;;;14.10;99.90;;;;;;5014365;28;20459;-61
2024/03/27 08:59:18;;;;;;;6.73;4.33;;;14.10;99.90;;;;;;5012256;28;20432;-62
2024/03/27 09:01:44;;;;;;;4.17;3.63;;;14.10;99.90;;;;;;5013810;28;20252;-63
2024/03/27 09:04:10;;;;;;;4.20;3.90;;;14.10;99.90;;;;;;5012218;28;20219;-62
2024/03/27 09:06:35;;;;;;;6.97;6.57;;;14.20;99.90;;;;;;5011470;28;20714;-61
2024/03/27 09:09:01;;;;;;;4.30;4.00;;;14.30;99.90;;;;;;5012538;28;20188;-62
2024/03/27 09:11:27;;;;;;;8.70;7.70;;;14.30;99.90;;;;;;5011766;28;20629;-61
2024/03/27 09:13:53;;;;;;;9.17;6.07;;;14.30;99.90;;;;;;5013552;28;20459;-61
2024/03/27 09:16:18;;;;;;;5.50;5.00;;;14.30;99.90;;;;;;5012418;28;20174;-62
2024/03/27 09:18:44;;;;;;;6.60;6.20;;;14.40;99.90;;;;;;5013485;28;20181;-61
2024/03/27 09:21:10;;;;;;;6.10;5.67;;;14.40;99.90;;;;;;5013169;28;20181;-61
2024/03/27 09:23:36;;;;;;;5.10;4.70;;;14.40;99.90;;;;;;5013374;28;20577;-61
2024/03/27 09:26:03;;;;;;;4.50;4.20;;;14.40;99.90;;;;;;5013369;28;20433;-61
2024/03/27 09:28:29;;;;;;;5.30;4.80;;;14.50;99.90;;;;;;5012172;28;20185;-62
2024/03/27 09:30:55;;;;;;;5.50;4.40;;;14.40;99.90;;;;;;5012868;28;20419;-62
2024/03/27 09:33:23;;;;;;;4.80;3.90;;;14.40;99.90;;;;;;5013547;28;20907;-62
2024/03/27 09:35:50;;;;;;;5.00;4.60;;;14.40;99.90;;;;;;5013201;28;20490;-62
2024/03/27 09:38:16;;;;;;;5.27;4.90;;;14.30;99.90;;;;;;5013414;28;20459;-62
2024/03/27 09:40:48;;;;;;;6.27;5.30;;;14.40;99.90;;;;;;5013600;28;20924;-61
2024/03/27 09:43:15;;;;;;;5.90;5.40;;;14.40;99.90;;;;;;5012173;28;20437;-62
2024/03/27 09:45:45;;;;;;;8.17;7.63;;;14.50;99.90;;;;;;5013437;28;20566;-61
2024/03/27 09:48:15;;;;;;;6.30;5.80;;;14.50;99.90;;;;;;5012721;28;20449;-62
2024/03/27 09:50:42;;;;;;;10.97;5.60;;;14.40;99.90;;;;;;5011297;28;20749;-62
2024/03/27 09:53:08;;;;;;;5.13;4.80;;;14.50;99.90;;;;;;5012629;28;20478;-63
2024/03/27 09:55:36;;;;;;;5.37;4.97;;;14.50;99.90;;;;;;5012822;28;20912;-63
2024/03/27 09:58:12;;;;;;;7.20;6.50;;;14.50;99.90;;;;;;5011805;28;20898;-62
2024/03/27 10:00:39;;;;;;;6.07;5.57;;;14.50;99.90;;;;;;4994202;28;20159;-64
2024/03/27 10:03:05;;;;;;;5.17;4.40;;;14.50;99.90;;;;;;4993214;28;20472;-64
2024/03/27 10:05:32;;;;;;;5.00;4.50;;;14.50;99.90;;;;;;4993769;28;20464;-64
2024/03/27 10:07:58;;;;;;;6.57;5.00;;;14.50;99.90;;;;;;4993831;28;20418;-64
2024/03/27 10:10:25;;;;;;;6.47;5.87;;;14.50;99.90;;;;;;4993225;28;20728;-64
2024/03/27 10:12:52;;;;;;;10.17;5.50;;;14.50;99.90;;;;;;4993852;28;20867;-64
2024/03/27 10:15:18;;;;;;;6.67;6.07;;;14.60;99.90;;;;;;4992836;28;20908;-64
2024/03/27 10:17:44;;;;;;;7.30;6.70;;;14.60;99.90;;;;;;4993681;28;20418;-64
2024/03/27 10:20:10;;;;;;;6.87;6.27;;;14.50;99.90;;;;;;4993042;28;20410;-64
2024/03/27 10:22:38;;;;;;;9.37;8.70;;;14.50;99.90;;;;;;4993648;28;20177;-64
2024/03/27 10:25:06;;;;;;;6.57;6.07;;;14.40;99.90;;;;;;4976135;28;20811;-64
2024/03/27 10:27:32;;;;;;;6.30;5.80;;;14.40;99.90;;;;;;4997891;28;20432;-64
2024/03/27 10:29:58;;;;;;;7.30;6.80;;;14.30;99.90;;;;;;5013206;28;20419;-64
2024/03/27 10:32:25;;;;;;;7.73;7.13;;;14.40;99.90;;;;;;5012554;28;20838;-64
2024/03/27 10:34:51;;;;;;;17.63;8.90;;;14.40;99.90;;;;;;5012970;28;20429;-64
2024/03/27 10:37:18;;;;;;;8.10;7.40;;;14.50;99.90;;;;;;5012486;28;20434;-64
2024/03/27 10:39:48;;;;;;;14.10;6.60;;;14.50;99.90;;;;;;5011978;28;20217;-64
2024/03/27 10:42:22;;;;;;;7.80;7.30;;;14.50;99.90;;;;;;5012330;28;20417;-64
2024/03/27 10:44:59;;;;;;;6.70;6.20;;;14.40;99.90;;;;;;5012847;28;20459;-64
2024/03/27 10:47:33;;;;;;;6.60;6.10;;;14.40;99.90;;;;;;5012419;28;20400;-64
2024/03/27 10:50:04;;;;;;;10.13;6.50;;;14.40;99.90;;;;;;5012928;28;20407;-64
2024/03/27 10:52:33;;;;;;;6.33;5.73;;;14.40;99.90;;;;;;5012363;28;20396;-64
2024/03/27 10:55:01;;;;;;;6.70;5.40;;;14.50;99.90;;;;;;5012794;28;20421;-64
2024/03/27 10:57:27;;;;;;;5.80;5.40;;;14.50;99.90;;;;;;5012479;28;20419;-64
2024/03/27 10:59:54;;;;;;;5.70;5.30;;;14.60;99.90;;;;;;5012753;28;20492;-64
2024/03/27 11:02:21;;;;;;;9.53;7.17;;;14.50;99.90;;;;;;5015205;28;20492;-64
2024/03/27 11:04:54;;;;;;;5.23;4.83;;;14.50;99.90;;;;;;5016913;28;20546;-64
2024/03/27 11:07:20;;;;;;;7.40;7.10;;;14.40;99.90;;;;;;5016083;28;20422;-64
2024/03/27 11:09:50;;;;;;;5.10;4.70;;;14.40;99.90;;;;;;5015606;28;20839;-64
2024/03/27 11:12:24;;;;;;;4.87;4.57;;;14.40;99.90;;;;;;5016001;28;20441;-64
2024/03/27 11:14:51;;;;;;;5.00;4.60;;;14.40;99.90;;;;;;5016514;28;20828;-64
2024/03/27 11:17:18;;;;;;;6.00;5.63;;;14.40;99.90;;;;;;5016015;28;20494;-64
2024/03/27 11:19:46;;;;;;;5.43;5.13;;;14.40;99.90;;;;;;5016644;28;20401;-64
2024/03/27 11:22:16;;;;;;;4.90;4.60;;;14.50;99.90;;;;;;4998589;28;20828;-64
2024/03/27 11:24:48;;;;;;;4.20;3.97;;;14.50;99.90;;;;;;5016336;28;20453;-64
2024/03/27 11:27:27;;;;;;;4.10;3.80;;;14.50;99.90;;;;;;5015870;28;20488;-64
2024/03/27 11:29:57;;;;;;;4.87;4.43;;;14.50;99.90;;;;;;5016591;28;20405;-64
2024/03/27 11:32:23;;;;;;;6.47;6.17;;;14.60;99.90;;;;;;5015460;28;20421;-64
2024/03/27 11:34:49;;;;;;;4.33;4.03;;;14.60;99.90;;;;;;5016516;28;20428;-64
2024/03/27 11:37:15;;;;;;;5.97;5.67;;;14.60;99.90;;;;;;5015588;28;20522;-64
2024/03/27 11:39:41;;;;;;;4.40;4.10;;;14.60;99.90;;;;;;5015198;28;20436;-64
2024/03/27 11:42:07;;;;;;;4.60;4.20;;;14.50;99.90;;;;;;5016026;28;20190;-64
2024/03/27 11:44:33;;;;;;;5.60;5.30;;;14.50;99.90;;;;;;5015435;28;20499;-64
2024/03/27 11:46:59;;;;;;;4.80;4.50;;;14.50;99.90;;;;;;5015980;28;20181;-64
2024/03/27 11:49:25;;;;;;;7.70;7.30;;;14.50;99.90;;;;;;5015443;28;20420;-64
2024/03/27 11:51:51;;;;;;;5.30;5.00;;;14.50;99.90;;;;;;5015704;28;20409;-64
2024/03/27 11:54:17;;;;;;;6.83;6.13;;;14.50;99.90;;;;;;5015421;28;20208;-64
2024/03/27 11:56:42;;;;;;;5.97;5.57;;;14.40;99.90;;;;;;5016083;28;20990;-64
2024/03/27 11:59:08;;;;;;;7.70;7.10;;;14.40;99.90;;;;;;5015864;28;20184;-64
2024/03/27 12:01:34;;;;;;;6.70;6.20;;;14.40;99.90;;;;;;5013809;28;20256;-63
2024/03/27 12:04:03;;;;;;;6.70;6.20;;;14.30;99.90;;;;;;5015675;28;20184;-63
2024/03/27 12:06:29;;;;;;;8.40;7.77;;;14.30;99.90;;;;;;5014858;28;20575;-63
2024/03/27 12:08:55;;;;;;;6.63;5.97;;;14.30;99.90;;;;;;5015663;28;20495;-63
2024/03/27 12:11:22;;;;;;;7.90;6.83;;;14.30;99.90;;;;;;5015011;28;20968;-63
2024/03/27 12:13:49;;;;;;;8.30;7.43;;;14.30;99.90;;;;;;5012254;28;20429;-63
2024/03/27 12:16:15;;;;;;;8.17;7.47;;;14.30;99.90;;;;;;5014312;28;20483;-64
2024/03/27 12:18:43;;;;;;;7.87;7.20;;;14.30;99.90;;;;;;5015365;28;20412;-64
2024/03/27 12:21:13;;;;;;;10.47;9.57;;;14.40;99.90;;;;;;5015384;28;20462;-62
2024/03/27 12:23:40;;;;;;;7.60;6.90;;;14.40;99.90;;;;;;5014585;28;20408;-61
2024/03/27 12:26:16;;;;;;;9.40;8.50;;;14.40;99.90;;;;;;5014782;28;20530;-61
2024/03/27 12:28:50;;;;;;;9.20;8.40;;;14.40;99.90;;;;;;5010517;28;20399;-61
2024/03/27 12:31:21;;;;;;;8.37;7.67;;;14.40;99.90;;;;;;5009927;28;20441;-61
2024/03/27 12:33:46;;;;;;;9.27;7.97;;;14.40;99.90;;;;;;5014925;28;20425;-61
2024/03/27 12:36:13;;;;;;;8.80;8.10;;;14.40;99.90;;;;;;5014491;28;20951;-62
2024/03/27 12:38:39;;;;;;;8.43;6.80;;;14.30;99.90;;;;;;5014545;28;20660;-62
2024/03/27 12:41:05;;;;;;;8.50;7.70;;;14.30;99.90;;;;;;5013328;28;21099;-62
2024/03/27 12:43:31;;;;;;;9.63;8.43;;;14.40;99.90;;;;;;5011361;28;20521;-61